Holgate, Ohio
Current Conditions -  °F | °C
As of 6:53 PM on Friday 19 Dec 2014 (Local Time) from KDFI Reporting Station
Overcast Overcast  
Wind Chill: 25°   Ceiling: 2300
Heat Index: 30°   Visibility: 10mi
Dew Point: 22°   Wind: 5mph
Humidity: 72%   Direction: 260°W
Pressure: 30.33"   Gusts: NA
Location:  41.25°N, 84.13°W
Report Text: KDFI 192353Z AUTO 26004KT 10SM OVC023 M01/M06 A3033 RMK AO2 SLP279 T10111056 11006 21011 53020 TSNO
Loading
Personal Weather Stations






























Interactive Weather Map New forecast layout! Learn more

10-Day Weather Forecast

Advertisements
Track Severe Weather on mobile